sensor_id;sensor_type;location;lat;lon;timestamp;temperature;humidity
14735;DHT22;7458;49.002;8.472;2023-04-25T00:01:45;10.10;99.90
14735;DHT22;7458;49.002;8.472;2023-04-25T00:09:04;10.80;99.90
14735;DHT22;7458;49.002;8.472;2023-04-25T00:18:55;10.70;99.90
14735;DHT22;7458;49.002;8.472;2023-04-25T00:21:21;11.00;99.90
14735;DHT22;7458;49.002;8.472;2023-04-25T00:26:13;11.00;99.90
14735;DHT22;7458;49.002;8.472;2023-04-25T00:28:39;10.80;99.90
14735;DHT22;7458;49.002;8.472;2023-04-25T00:33:32;11.20;99.90
14735;DHT22;7458;49.002;8.472;2023-04-25T00:38:24;10.80;99.90
14735;DHT22;7458;49.002;8.472;2023-04-25T00:40:49;10.70;99.90
14735;DHT22;7458;49.002;8.472;2023-04-25T00:43:15;10.80;99.90
14735;DHT22;7458;49.002;8.472;2023-04-25T00:45:43;10.60;99.90
14735;DHT22;7458;49.002;8.472;2023-04-25T00:48:08;10.40;99.90
14735;DHT22;7458;49.002;8.472;2023-04-25T00:50:35;11.20;99.90
14735;DHT22;7458;49.002;8.472;2023-04-25T00:53:02;11.00;99.90
14735;DHT22;7458;49.002;8.472;2023-04-25T00:55:29;10.70;99.90
14735;DHT22;7458;49.002;8.472;2023-04-25T00:57:57;10.90;99.90
14735;DHT22;7458;49.002;8.472;2023-04-25T01:00:23;11.00;99.90
14735;DHT22;7458;49.002;8.472;2023-04-25T01:02:49;10.70;99.90
14735;DHT22;7458;49.002;8.472;2023-04-25T01:05:16;11.10;99.90
14735;DHT22;7458;49.002;8.472;2023-04-25T01:07:42;10.20;99.90
14735;DHT22;7458;49.002;8.472;2023-04-25T01:10:08;10.90;99.90
14735;DHT22;7458;49.002;8.472;2023-04-25T01:12:35;11.30;99.90
14735;DHT22;7458;49.002;8.472;2023-04-25T01:17:28;10.60;99.90
14735;DHT22;7458;49.002;8.472;2023-04-25T01:19:54;10.60;99.90
14735;DHT22;7458;49.002;8.472;2023-04-25T01:27:14;10.50;99.90
14735;DHT22;7458;49.002;8.472;2023-04-25T01:32:07;10.50;99.90
14735;DHT22;7458;49.002;8.472;2023-04-25T01:37:00;10.90;99.90
14735;DHT22;7458;49.002;8.472;2023-04-25T01:39:27;11.10;99.90
14735;DHT22;7458;49.002;8.472;2023-04-25T01:46:45;10.30;99.90
14735;DHT22;7458;49.002;8.472;2023-04-25T01:56:31;10.90;99.90
14735;DHT22;7458;49.002;8.472;2023-04-25T01:58:58;11.20;99.90
14735;DHT22;7458;49.002;8.472;2023-04-25T02:01:24;10.70;99.90
14735;DHT22;7458;49.002;8.472;2023-04-25T02:03:50;11.00;99.90
14735;DHT22;7458;49.002;8.472;2023-04-25T02:06:16;11.10;99.90
14735;DHT22;7458;49.002;8.472;2023-04-25T02:08:41;10.40;99.90
14735;DHT22;7458;49.002;8.472;2023-04-25T02:11:07;10.40;99.90
14735;DHT22;7458;49.002;8.472;2023-04-25T02:15:59;10.70;99.90
14735;DHT22;7458;49.002;8.472;2023-04-25T02:18:25;10.50;99.90
14735;DHT22;7458;49.002;8.472;2023-04-25T02:20:51;10.60;99.90
14735;DHT22;7458;49.002;8.472;2023-04-25T02:23:17;10.70;99.90
14735;DHT22;7458;49.002;8.472;2023-04-25T02:28:10;10.20;99.90
14735;DHT22;7458;49.002;8.472;2023-04-25T02:33:03;11.00;99.90
14735;DHT22;7458;49.002;8.472;2023-04-25T02:42:47;10.70;99.90
14735;DHT22;7458;49.002;8.472;2023-04-25T02:45:13;10.40;99.90
14735;DHT22;7458;49.002;8.472;2023-04-25T02:47:39;10.60;99.90
14735;DHT22;7458;49.002;8.472;2023-04-25T02:50:05;10.30;99.90
14735;DHT22;7458;49.002;8.472;2023-04-25T02:52:31;10.50;99.90
14735;DHT22;7458;49.002;8.472;2023-04-25T02:54:57;10.30;99.90
14735;DHT22;7458;49.002;8.472;2023-04-25T02:59:48;10.30;99.90
14735;DHT22;7458;49.002;8.472;2023-04-25T03:02:14;10.30;99.90
14735;DHT22;7458;49.002;8.472;2023-04-25T03:09:32;10.20;99.90
14735;DHT22;7458;49.002;8.472;2023-04-25T03:14:25;10.30;99.90
14735;DHT22;7458;49.002;8.472;2023-04-25T03:16:51;10.20;99.90
14735;DHT22;7458;49.002;8.472;2023-04-25T03:21:44;10.20;99.90
14735;DHT22;7458;49.002;8.472;2023-04-25T03:24:10;10.10;99.90
14735;DHT22;7458;49.002;8.472;2023-04-25T03:31:31;10.50;99.90
14735;DHT22;7458;49.002;8.472;2023-04-25T03:33:57;10.10;99.90
14735;DHT22;7458;49.002;8.472;2023-04-25T03:36:22;10.10;99.90
14735;DHT22;7458;49.002;8.472;2023-04-25T03:43:41;10.10;99.90
14735;DHT22;7458;49.002;8.472;2023-04-25T03:48:33;10.20;99.90
14735;DHT22;7458;49.002;8.472;2023-04-25T03:50:58;10.20;99.90
14735;DHT22;7458;49.002;8.472;2023-04-25T03:53:25;10.20;99.90
14735;DHT22;7458;49.002;8.472;2023-04-25T03:55:51;10.10;99.90
14735;DHT22;7458;49.002;8.472;2023-04-25T04:08:02;9.90;99.90
14735;DHT22;7458;49.002;8.472;2023-04-25T04:17:48;10.20;99.90
14735;DHT22;7458;49.002;8.472;2023-04-25T04:20:14;10.60;99.90
14735;DHT22;7458;49.002;8.472;2023-04-25T04:25:06;10.30;99.90
14735;DHT22;7458;49.002;8.472;2023-04-25T04:27:32;10.10;99.90
14735;DHT22;7458;49.002;8.472;2023-04-25T04:29:58;10.30;99.90
14735;DHT22;7458;49.002;8.472;2023-04-25T04:32:23;10.20;99.90
14735;DHT22;7458;49.002;8.472;2023-04-25T04:39:43;10.30;99.90
14735;DHT22;7458;49.002;8.472;2023-04-25T04:42:09;10.20;99.90
14735;DHT22;7458;49.002;8.472;2023-04-25T04:51:58;10.30;99.90
14735;DHT22;7458;49.002;8.472;2023-04-25T04:59:18;10.30;99.90
14735;DHT22;7458;49.002;8.472;2023-04-25T05:04:11;10.60;99.90
14735;DHT22;7458;49.002;8.472;2023-04-25T05:06:36;10.50;99.90
14735;DHT22;7458;49.002;8.472;2023-04-25T05:09:02;10.30;99.90
14735;DHT22;7458;49.002;8.472;2023-04-25T05:11:29;10.50;99.90
14735;DHT22;7458;49.002;8.472;2023-04-25T05:23:39;10.40;99.90
14735;DHT22;7458;49.002;8.472;2023-04-25T05:31:06;10.30;99.90
14735;DHT22;7458;49.002;8.472;2023-04-25T05:40:50;11.30;99.90
14735;DHT22;7458;49.002;8.472;2023-04-25T05:43:16;11.10;99.90
14735;DHT22;7458;49.002;8.472;2023-04-25T05:45:42;10.50;99.90
14735;DHT22;7458;49.002;8.472;2023-04-25T05:50:34;10.90;99.90
14735;DHT22;7458;49.002;8.472;2023-04-25T06:00:17;11.60;99.90
14735;DHT22;7458;49.002;8.472;2023-04-25T06:02:44;10.60;99.90
14735;DHT22;7458;49.002;8.472;2023-04-25T06:05:09;11.00;99.90
14735;DHT22;7458;49.002;8.472;2023-04-25T06:07:35;11.70;99.90
14735;DHT22;7458;49.002;8.472;2023-04-25T06:12:27;11.20;99.90
14735;DHT22;7458;49.002;8.472;2023-04-25T06:19:45;11.20;99.90
14735;DHT22;7458;49.002;8.472;2023-04-25T06:22:11;11.10;99.90
14735;DHT22;7458;49.002;8.472;2023-04-25T06:24:37;11.20;99.90
14735;DHT22;7458;49.002;8.472;2023-04-25T06:29:28;10.50;99.90
14735;DHT22;7458;49.002;8.472;2023-04-25T06:36:46;10.40;99.90
14735;DHT22;7458;49.002;8.472;2023-04-25T06:41:38;10.60;99.90
14735;DHT22;7458;49.002;8.472;2023-04-25T06:44:04;10.80;99.90
14735;DHT22;7458;49.002;8.472;2023-04-25T06:48:59;10.10;99.90
14735;DHT22;7458;49.002;8.472;2023-04-25T06:51:25;10.60;99.90
14735;DHT22;7458;49.002;8.472;2023-04-25T06:56:19;10.40;99.90
14735;DHT22;7458;49.002;8.472;2023-04-25T07:01:12;10.30;99.90
14735;DHT22;7458;49.002;8.472;2023-04-25T07:03:38;10.10;99.90
14735;DHT22;7458;49.002;8.472;2023-04-25T07:08:31;11.10;99.90
14735;DHT22;7458;49.002;8.472;2023-04-25T07:15:49;11.50;99.90
14735;DHT22;7458;49.002;8.472;2023-04-25T07:20:41;10.60;99.90
14735;DHT22;7458;49.002;8.472;2023-04-25T07:28:00;10.70;99.90
14735;DHT22;7458;49.002;8.472;2023-04-25T07:30:26;11.10;99.90
14735;DHT22;7458;49.002;8.472;2023-04-25T07:42:37;10.00;99.90
14735;DHT22;7458;49.002;8.472;2023-04-25T07:45:03;9.70;99.90
14735;DHT22;7458;49.002;8.472;2023-04-25T07:49:55;10.40;99.90
14735;DHT22;7458;49.002;8.472;2023-04-25T07:57:14;11.10;99.90
14735;DHT22;7458;49.002;8.472;2023-04-25T08:04:32;10.80;99.90
14735;DHT22;7458;49.002;8.472;2023-04-25T08:06:58;10.60;99.90
14735;DHT22;7458;49.002;8.472;2023-04-25T08:09:23;10.70;99.90
14735;DHT22;7458;49.002;8.472;2023-04-25T08:16:42;11.00;99.90
14735;DHT22;7458;49.002;8.472;2023-04-25T08:19:08;10.60;99.90
14735;DHT22;7458;49.002;8.472;2023-04-25T08:21:35;11.00;99.90
14735;DHT22;7458;49.002;8.472;2023-04-25T08:24:01;10.60;99.90
14735;DHT22;7458;49.002;8.472;2023-04-25T08:26:28;11.10;99.90
14735;DHT22;7458;49.002;8.472;2023-04-25T08:28:53;11.00;99.90
14735;DHT22;7458;49.002;8.472;2023-04-25T08:31:19;11.10;99.90
14735;DHT22;7458;49.002;8.472;2023-04-25T08:38:38;11.50;99.90
14735;DHT22;7458;49.002;8.472;2023-04-25T08:41:05;10.60;99.90
14735;DHT22;7458;49.002;8.472;2023-04-25T08:46:00;11.30;99.90
14735;DHT22;7458;49.002;8.472;2023-04-25T08:48:27;11.20;99.90
14735;DHT22;7458;49.002;8.472;2023-04-25T08:53:31;11.20;99.90
14735;DHT22;7458;49.002;8.472;2023-04-25T08:56:00;11.40;99.90
14735;DHT22;7458;49.002;8.472;2023-04-25T08:58:29;11.10;99.90
14735;DHT22;7458;49.002;8.472;2023-04-25T09:00:56;11.20;99.90
14735;DHT22;7458;49.002;8.472;2023-04-25T09:10:42;11.40;99.90
14735;DHT22;7458;49.002;8.472;2023-04-25T09:13:13;10.90;99.90
14735;DHT22;7458;49.002;8.472;2023-04-25T09:15:53;10.60;99.90
14735;DHT22;7458;49.002;8.472;2023-04-25T09:18:32;12.80;99.90
14735;DHT22;7458;49.002;8.472;2023-04-25T09:21:10;13.40;99.90
14735;DHT22;7458;49.002;8.472;2023-04-25T09:23:44;12.00;99.90
14735;DHT22;7458;49.002;8.472;2023-04-25T09:26:15;12.00;99.90
14735;DHT22;7458;49.002;8.472;2023-04-25T09:28:42;11.70;99.90
14735;DHT22;7458;49.002;8.472;2023-04-25T09:31:10;11.00;99.90
14735;DHT22;7458;49.002;8.472;2023-04-25T09:33:37;11.20;99.90
14735;DHT22;7458;49.002;8.472;2023-04-25T09:36:04;11.20;99.90
14735;DHT22;7458;49.002;8.472;2023-04-25T09:38:45;10.70;99.90
14735;DHT22;7458;49.002;8.472;2023-04-25T09:43:39;10.00;99.90
14735;DHT22;7458;49.002;8.472;2023-04-25T09:46:09;10.60;99.90
14735;DHT22;7458;49.002;8.472;2023-04-25T09:48:37;10.00;99.90
14735;DHT22;7458;49.002;8.472;2023-04-25T09:53:37;9.90;99.90
14735;DHT22;7458;49.002;8.472;2023-04-25T09:56:05;9.80;99.90
14735;DHT22;7458;49.002;8.472;2023-04-25T09:58:33;9.70;99.90
14735;DHT22;7458;49.002;8.472;2023-04-25T10:01:10;9.60;99.90
14735;DHT22;7458;49.002;8.472;2023-04-25T10:03:38;9.40;99.90
14735;DHT22;7458;49.002;8.472;2023-04-25T10:06:11;9.70;99.90
14735;DHT22;7458;49.002;8.472;2023-04-25T10:11:07;9.10;99.90
14735;DHT22;7458;49.002;8.472;2023-04-25T10:13:34;9.20;99.90
14735;DHT22;7458;49.002;8.472;2023-04-25T10:16:04;9.80;99.90
14735;DHT22;7458;49.002;8.472;2023-04-25T10:18:31;8.90;99.90
14735;DHT22;7458;49.002;8.472;2023-04-25T10:21:05;9.50;99.90
14735;DHT22;7458;49.002;8.472;2023-04-25T10:23:32;9.70;99.90
14735;DHT22;7458;49.002;8.472;2023-04-25T10:28:28;9.90;99.90
14735;DHT22;7458;49.002;8.472;2023-04-25T10:31:01;9.80;99.90
14735;DHT22;7458;49.002;8.472;2023-04-25T10:33:43;10.60;99.90
14735;DHT22;7458;49.002;8.472;2023-04-25T10:36:13;10.50;99.90
14735;DHT22;7458;49.002;8.472;2023-04-25T10:38:50;10.00;99.90
14735;DHT22;7458;49.002;8.472;2023-04-25T10:41:20;10.10;99.90
14735;DHT22;7458;49.002;8.472;2023-04-25T10:48:49;10.60;99.90
14735;DHT22;7458;49.002;8.472;2023-04-25T10:54:00;10.20;99.90
14735;DHT22;7458;49.002;8.472;2023-04-25T10:59:16;9.80;99.90
14735;DHT22;7458;49.002;8.472;2023-04-25T11:01:44;10.20;99.90
14735;DHT22;7458;49.002;8.472;2023-04-25T11:04:30;10.70;99.90
14735;DHT22;7458;49.002;8.472;2023-04-25T11:07:10;10.50;99.90
14735;DHT22;7458;49.002;8.472;2023-04-25T11:09:45;9.80;99.90
14735;DHT22;7458;49.002;8.472;2023-04-25T11:21:59;10.10;99.90
14735;DHT22;7458;49.002;8.472;2023-04-25T11:24:31;10.40;99.90
14735;DHT22;7458;49.002;8.472;2023-04-25T11:26:59;10.30;99.90
14735;DHT22;7458;49.002;8.472;2023-04-25T11:29:29;10.40;99.90
14735;DHT22;7458;49.002;8.472;2023-04-25T11:31:57;10.10;99.90
14735;DHT22;7458;49.002;8.472;2023-04-25T11:36:51;9.70;99.90
14735;DHT22;7458;49.002;8.472;2023-04-25T11:39:19;10.10;99.90
14735;DHT22;7458;49.002;8.472;2023-04-25T11:41:45;9.60;99.90
14735;DHT22;7458;49.002;8.472;2023-04-25T11:44:12;9.60;99.90
14735;DHT22;7458;49.002;8.472;2023-04-25T11:46:42;9.70;99.90
14735;DHT22;7458;49.002;8.472;2023-04-25T11:51:41;9.80;99.90
14735;DHT22;7458;49.002;8.472;2023-04-25T11:54:12;9.40;99.90
14735;DHT22;7458;49.002;8.472;2023-04-25T11:56:45;10.90;99.90
14735;DHT22;7458;49.002;8.472;2023-04-25T11:59:12;10.40;99.90
14735;DHT22;7458;49.002;8.472;2023-04-25T12:01:41;10.70;99.90
14735;DHT22;7458;49.002;8.472;2023-04-25T12:04:24;10.60;99.90
14735;DHT22;7458;49.002;8.472;2023-04-25T12:06:52;10.80;99.90
14735;DHT22;7458;49.002;8.472;2023-04-25T12:09:21;10.20;99.90
14735;DHT22;7458;49.002;8.472;2023-04-25T12:11:58;10.00;99.90
14735;DHT22;7458;49.002;8.472;2023-04-25T12:14:29;10.40;99.90
14735;DHT22;7458;49.002;8.472;2023-04-25T12:17:02;9.70;99.90
14735;DHT22;7458;49.002;8.472;2023-04-25T12:19:33;10.40;99.90
14735;DHT22;7458;49.002;8.472;2023-04-25T12:22:02;10.50;99.90
14735;DHT22;7458;49.002;8.472;2023-04-25T12:27:03;10.30;99.90
14735;DHT22;7458;49.002;8.472;2023-04-25T12:29:32;10.60;99.90
14735;DHT22;7458;49.002;8.472;2023-04-25T12:31:59;10.20;99.90
14735;DHT22;7458;49.002;8.472;2023-04-25T12:34:27;10.70;99.90
14735;DHT22;7458;49.002;8.472;2023-04-25T12:36:54;11.10;99.90
14735;DHT22;7458;49.002;8.472;2023-04-25T12:39:22;10.80;99.90
14735;DHT22;7458;49.002;8.472;2023-04-25T12:41:50;10.70;99.90
14735;DHT22;7458;49.002;8.472;2023-04-25T12:44:17;10.90;99.90
14735;DHT22;7458;49.002;8.472;2023-04-25T12:46:43;11.30;99.90
14735;DHT22;7458;49.002;8.472;2023-04-25T12:49:09;11.40;99.90
14735;DHT22;7458;49.002;8.472;2023-04-25T12:51:35;11.60;99.90
14735;DHT22;7458;49.002;8.472;2023-04-25T12:54:03;11.50;99.90
14735;DHT22;7458;49.002;8.472;2023-04-25T12:56:30;11.60;99.90
14735;DHT22;7458;49.002;8.472;2023-04-25T12:58:57;11.30;99.90
14735;DHT22;7458;49.002;8.472;2023-04-25T13:01:23;10.70;99.90
14735;DHT22;7458;49.002;8.472;2023-04-25T13:03:49;11.10;99.90
14735;DHT22;7458;49.002;8.472;2023-04-25T13:06:16;11.20;99.90
14735;DHT22;7458;49.002;8.472;2023-04-25T13:11:09;10.50;99.90
14735;DHT22;7458;49.002;8.472;2023-04-25T13:16:06;11.40;99.90
14735;DHT22;7458;49.002;8.472;2023-04-25T13:23:26;11.30;99.90
14735;DHT22;7458;49.002;8.472;2023-04-25T13:25:54;11.60;99.90
14735;DHT22;7458;49.002;8.472;2023-04-25T13:28:21;11.50;99.90
14735;DHT22;7458;49.002;8.472;2023-04-25T13:30:47;11.40;99.90
14735;DHT22;7458;49.002;8.472;2023-04-25T13:33:14;11.40;99.90
14735;DHT22;7458;49.002;8.472;2023-04-25T13:40:33;11.50;99.90
14735;DHT22;7458;49.002;8.472;2023-04-25T13:47:52;11.30;99.90
14735;DHT22;7458;49.002;8.472;2023-04-25T13:50:18;11.20;99.90
14735;DHT22;7458;49.002;8.472;2023-04-25T13:52:47;11.50;99.90
14735;DHT22;7458;49.002;8.472;2023-04-25T13:55:13;11.50;99.90
14735;DHT22;7458;49.002;8.472;2023-04-25T13:57:39;11.10;99.90
14735;DHT22;7458;49.002;8.472;2023-04-25T14:00:05;12.10;99.90
14735;DHT22;7458;49.002;8.472;2023-04-25T14:02:37;11.80;99.90
14735;DHT22;7458;49.002;8.472;2023-04-25T14:05:04;12.00;99.90
14735;DHT22;7458;49.002;8.472;2023-04-25T14:12:23;11.40;99.90
14735;DHT22;7458;49.002;8.472;2023-04-25T14:14:50;11.50;99.90
14735;DHT22;7458;49.002;8.472;2023-04-25T14:19:41;11.40;99.90
14735;DHT22;7458;49.002;8.472;2023-04-25T14:22:11;11.70;99.90
14735;DHT22;7458;49.002;8.472;2023-04-25T14:24:37;11.80;99.90
14735;DHT22;7458;49.002;8.472;2023-04-25T14:36:51;11.70;99.90
14735;DHT22;7458;49.002;8.472;2023-04-25T14:39:18;11.90;99.90
14735;DHT22;7458;49.002;8.472;2023-04-25T14:41:44;11.70;99.90
14735;DHT22;7458;49.002;8.472;2023-04-25T14:44:10;11.80;99.90
14735;DHT22;7458;49.002;8.472;2023-04-25T14:46:36;11.90;99.90
14735;DHT22;7458;49.002;8.472;2023-04-25T14:49:03;12.00;99.90
14735;DHT22;7458;49.002;8.472;2023-04-25T14:51:29;11.80;99.90
14735;DHT22;7458;49.002;8.472;2023-04-25T14:56:21;12.20;99.90
14735;DHT22;7458;49.002;8.472;2023-04-25T14:58:47;12.20;99.90
14735;DHT22;7458;49.002;8.472;2023-04-25T15:03:42;11.80;99.90
14735;DHT22;7458;49.002;8.472;2023-04-25T15:06:07;12.30;99.90
14735;DHT22;7458;49.002;8.472;2023-04-25T15:13:27;12.00;99.90
14735;DHT22;7458;49.002;8.472;2023-04-25T15:18:22;11.80;99.90
14735;DHT22;7458;49.002;8.472;2023-04-25T15:20:50;11.40;99.90
14735;DHT22;7458;49.002;8.472;2023-04-25T15:23:20;11.90;99.90
14735;DHT22;7458;49.002;8.472;2023-04-25T15:25:46;10.80;99.90
14735;DHT22;7458;49.002;8.472;2023-04-25T15:28:13;11.30;99.90
14735;DHT22;7458;49.002;8.472;2023-04-25T15:30:43;11.50;99.90
14735;DHT22;7458;49.002;8.472;2023-04-25T15:33:09;11.10;99.90
14735;DHT22;7458;49.002;8.472;2023-04-25T15:38:01;10.80;99.90
14735;DHT22;7458;49.002;8.472;2023-04-25T15:42:53;11.20;99.90
14735;DHT22;7458;49.002;8.472;2023-04-25T15:45:23;12.10;99.90
14735;DHT22;7458;49.002;8.472;2023-04-25T15:47:54;11.50;99.90
14735;DHT22;7458;49.002;8.472;2023-04-25T15:52:50;12.00;99.90
14735;DHT22;7458;49.002;8.472;2023-04-25T15:55:17;11.60;99.90
14735;DHT22;7458;49.002;8.472;2023-04-25T16:00:13;11.60;99.90
14735;DHT22;7458;49.002;8.472;2023-04-25T16:02:42;11.90;99.90
14735;DHT22;7458;49.002;8.472;2023-04-25T16:05:09;11.40;99.90
14735;DHT22;7458;49.002;8.472;2023-04-25T16:07:37;11.60;99.90
14735;DHT22;7458;49.002;8.472;2023-04-25T16:10:04;10.90;99.90
14735;DHT22;7458;49.002;8.472;2023-04-25T16:12:30;11.30;99.90
14735;DHT22;7458;49.002;8.472;2023-04-25T16:14:56;11.30;99.90
14735;DHT22;7458;49.002;8.472;2023-04-25T16:17:26;11.10;99.90
14735;DHT22;7458;49.002;8.472;2023-04-25T16:19:58;10.70;99.90
14735;DHT22;7458;49.002;8.472;2023-04-25T16:24:52;9.80;99.90
14735;DHT22;7458;49.002;8.472;2023-04-25T16:27:18;10.00;99.90
14735;DHT22;7458;49.002;8.472;2023-04-25T16:39:29;9.70;99.90
14735;DHT22;7458;49.002;8.472;2023-04-25T16:54:06;9.90;99.90
14735;DHT22;7458;49.002;8.472;2023-04-25T16:56:32;10.10;99.90
14735;DHT22;7458;49.002;8.472;2023-04-25T17:01:25;9.40;99.90
14735;DHT22;7458;49.002;8.472;2023-04-25T17:03:51;10.40;99.90
14735;DHT22;7458;49.002;8.472;2023-04-25T17:06:17;9.30;99.90
14735;DHT22;7458;49.002;8.472;2023-04-25T17:11:09;9.40;99.90
14735;DHT22;7458;49.002;8.472;2023-04-25T17:13:35;9.40;99.90
14735;DHT22;7458;49.002;8.472;2023-04-25T17:16:01;9.20;99.90
14735;DHT22;7458;49.002;8.472;2023-04-25T17:18:28;9.50;99.90
14735;DHT22;7458;49.002;8.472;2023-04-25T17:20:54;9.40;99.90
14735;DHT22;7458;49.002;8.472;2023-04-25T17:23:20;9.90;99.90
14735;DHT22;7458;49.002;8.472;2023-04-25T17:25:46;9.50;99.90
14735;DHT22;7458;49.002;8.472;2023-04-25T17:28:12;9.60;99.90
14735;DHT22;7458;49.002;8.472;2023-04-25T17:33:04;9.80;99.90
14735;DHT22;7458;49.002;8.472;2023-04-25T17:35:31;9.30;99.90
14735;DHT22;7458;49.002;8.472;2023-04-25T17:40:27;9.50;99.90
14735;DHT22;7458;49.002;8.472;2023-04-25T17:42:53;9.30;99.90
14735;DHT22;7458;49.002;8.472;2023-04-25T17:45:19;9.20;99.90
14735;DHT22;7458;49.002;8.472;2023-04-25T17:50:11;9.40;99.90
14735;DHT22;7458;49.002;8.472;2023-04-25T17:52:38;9.30;99.90
14735;DHT22;7458;49.002;8.472;2023-04-25T17:55:06;9.40;99.90
14735;DHT22;7458;49.002;8.472;2023-04-25T17:57:32;9.10;99.90
14735;DHT22;7458;49.002;8.472;2023-04-25T17:59:58;9.40;99.90
14735;DHT22;7458;49.002;8.472;2023-04-25T18:04:51;9.60;99.90
14735;DHT22;7458;49.002;8.472;2023-04-25T18:09:43;10.40;99.90
14735;DHT22;7458;49.002;8.472;2023-04-25T18:12:09;9.40;99.90
14735;DHT22;7458;49.002;8.472;2023-04-25T18:17:01;9.50;99.90
14735;DHT22;7458;49.002;8.472;2023-04-25T18:19:28;9.40;99.90
14735;DHT22;7458;49.002;8.472;2023-04-25T18:21:55;9.20;99.90
14735;DHT22;7458;49.002;8.472;2023-04-25T18:24:22;9.00;99.90
14735;DHT22;7458;49.002;8.472;2023-04-25T18:29:20;8.80;99.90
14735;DHT22;7458;49.002;8.472;2023-04-25T18:31:46;9.20;99.90
14735;DHT22;7458;49.002;8.472;2023-04-25T18:34:13;9.30;99.90
14735;DHT22;7458;49.002;8.472;2023-04-25T18:36:40;9.40;99.90
14735;DHT22;7458;49.002;8.472;2023-04-25T18:41:36;9.40;99.90
14735;DHT22;7458;49.002;8.472;2023-04-25T18:44:03;9.30;99.90
14735;DHT22;7458;49.002;8.472;2023-04-25T18:46:33;9.40;99.90
14735;DHT22;7458;49.002;8.472;2023-04-25T18:48:59;9.30;99.90
14735;DHT22;7458;49.002;8.472;2023-04-25T18:51:27;9.50;99.90
14735;DHT22;7458;49.002;8.472;2023-04-25T18:53:54;9.70;99.90
14735;DHT22;7458;49.002;8.472;2023-04-25T18:58:49;9.40;99.90
14735;DHT22;7458;49.002;8.472;2023-04-25T19:01:18;9.10;99.90
14735;DHT22;7458;49.002;8.472;2023-04-25T19:08:52;9.30;99.90
14735;DHT22;7458;49.002;8.472;2023-04-25T19:11:20;9.40;99.90
14735;DHT22;7458;49.002;8.472;2023-04-25T19:13:50;9.80;99.90
14735;DHT22;7458;49.002;8.472;2023-04-25T19:16:17;9.20;99.90
14735;DHT22;7458;49.002;8.472;2023-04-25T19:18:45;9.50;99.90
14735;DHT22;7458;49.002;8.472;2023-04-25T19:21:11;9.90;99.90
14735;DHT22;7458;49.002;8.472;2023-04-25T19:23:37;9.90;99.90
14735;DHT22;7458;49.002;8.472;2023-04-25T19:26:03;9.30;99.90
14735;DHT22;7458;49.002;8.472;2023-04-25T19:28:29;9.40;99.90
14735;DHT22;7458;49.002;8.472;2023-04-25T19:30:57;9.90;99.90
14735;DHT22;7458;49.002;8.472;2023-04-25T19:35:49;9.80;99.90
14735;DHT22;7458;49.002;8.472;2023-04-25T19:38:15;9.90;99.90
14735;DHT22;7458;49.002;8.472;2023-04-25T19:43:08;9.30;99.90
14735;DHT22;7458;49.002;8.472;2023-04-25T19:45:34;9.30;99.90
14735;DHT22;7458;49.002;8.472;2023-04-25T19:48:01;9.20;99.90
14735;DHT22;7458;49.002;8.472;2023-04-25T19:50:29;9.90;99.90
14735;DHT22;7458;49.002;8.472;2023-04-25T19:52:56;9.30;99.90
14735;DHT22;7458;49.002;8.472;2023-04-25T19:57:49;9.20;99.90
14735;DHT22;7458;49.002;8.472;2023-04-25T20:00:16;9.40;99.90
14735;DHT22;7458;49.002;8.472;2023-04-25T20:02:43;9.30;99.90
14735;DHT22;7458;49.002;8.472;2023-04-25T20:05:13;9.40;99.90
14735;DHT22;7458;49.002;8.472;2023-04-25T20:07:40;9.30;99.90
14735;DHT22;7458;49.002;8.472;2023-04-25T20:10:08;9.40;99.90
14735;DHT22;7458;49.002;8.472;2023-04-25T20:19:58;9.80;99.90
14735;DHT22;7458;49.002;8.472;2023-04-25T20:24:52;9.40;99.90
14735;DHT22;7458;49.002;8.472;2023-04-25T20:27:18;9.60;99.90
14735;DHT22;7458;49.002;8.472;2023-04-25T20:29:44;9.60;99.90
14735;DHT22;7458;49.002;8.472;2023-04-25T20:37:02;9.40;99.90
14735;DHT22;7458;49.002;8.472;2023-04-25T20:39:28;9.50;99.90
14735;DHT22;7458;49.002;8.472;2023-04-25T20:41:54;9.60;99.90
14735;DHT22;7458;49.002;8.472;2023-04-25T20:44:21;9.40;99.90
14735;DHT22;7458;49.002;8.472;2023-04-25T20:46:48;9.70;99.90
14735;DHT22;7458;49.002;8.472;2023-04-25T20:51:40;9.50;99.90
14735;DHT22;7458;49.002;8.472;2023-04-25T20:54:06;9.50;99.90
14735;DHT22;7458;49.002;8.472;2023-04-25T21:01:26;9.40;99.90
14735;DHT22;7458;49.002;8.472;2023-04-25T21:06:18;9.30;99.90
14735;DHT22;7458;49.002;8.472;2023-04-25T21:08:44;9.70;99.90
14735;DHT22;7458;49.002;8.472;2023-04-25T21:11:10;9.20;99.90
14735;DHT22;7458;49.002;8.472;2023-04-25T21:13:37;9.50;99.90
14735;DHT22;7458;49.002;8.472;2023-04-25T21:16:03;9.40;99.90
14735;DHT22;7458;49.002;8.472;2023-04-25T21:18:29;9.30;99.90
14735;DHT22;7458;49.002;8.472;2023-04-25T21:20:57;9.80;99.90
14735;DHT22;7458;49.002;8.472;2023-04-25T21:28:19;9.00;99.90
14735;DHT22;7458;49.002;8.472;2023-04-25T21:30:45;9.30;99.90
14735;DHT22;7458;49.002;8.472;2023-04-25T21:33:12;9.30;99.90
14735;DHT22;7458;49.002;8.472;2023-04-25T21:38:04;9.10;99.90
14735;DHT22;7458;49.002;8.472;2023-04-25T21:42:59;10.00;99.90
14735;DHT22;7458;49.002;8.472;2023-04-25T21:45:25;9.50;99.90
14735;DHT22;7458;49.002;8.472;2023-04-25T21:47:53;8.90;99.90
14735;DHT22;7458;49.002;8.472;2023-04-25T21:50:20;8.80;99.90
14735;DHT22;7458;49.002;8.472;2023-04-25T21:52:47;9.20;99.90
14735;DHT22;7458;49.002;8.472;2023-04-25T21:57:40;8.70;99.90
14735;DHT22;7458;49.002;8.472;2023-04-25T22:00:07;9.10;99.90
14735;DHT22;7458;49.002;8.472;2023-04-25T22:02:54;9.20;99.90
14735;DHT22;7458;49.002;8.472;2023-04-25T22:05:20;9.30;99.90
14735;DHT22;7458;49.002;8.472;2023-04-25T22:07:48;9.20;99.90
14735;DHT22;7458;49.002;8.472;2023-04-25T22:17:37;8.80;99.90
14735;DHT22;7458;49.002;8.472;2023-04-25T22:20:05;9.40;99.90
14735;DHT22;7458;49.002;8.472;2023-04-25T22:22:36;9.30;99.90
14735;DHT22;7458;49.002;8.472;2023-04-25T22:25:02;9.30;99.90
14735;DHT22;7458;49.002;8.472;2023-04-25T22:37:12;9.10;99.90
14735;DHT22;7458;49.002;8.472;2023-04-25T22:39:38;9.70;99.90
14735;DHT22;7458;49.002;8.472;2023-04-25T22:42:04;10.20;99.90
14735;DHT22;7458;49.002;8.472;2023-04-25T22:51:50;9.70;99.90
14735;DHT22;7458;49.002;8.472;2023-04-25T22:56:46;9.40;99.90
14735;DHT22;7458;49.002;8.472;2023-04-25T22:59:12;9.60;99.90
14735;DHT22;7458;49.002;8.472;2023-04-25T23:01:37;9.10;99.90
14735;DHT22;7458;49.002;8.472;2023-04-25T23:04:04;9.40;99.90
14735;DHT22;7458;49.002;8.472;2023-04-25T23:06:29;9.30;99.90
14735;DHT22;7458;49.002;8.472;2023-04-25T23:08:55;9.30;99.90
14735;DHT22;7458;49.002;8.472;2023-04-25T23:11:21;8.90;99.90
14735;DHT22;7458;49.002;8.472;2023-04-25T23:13:48;9.20;99.90
14735;DHT22;7458;49.002;8.472;2023-04-25T23:21:07;9.80;99.90
14735;DHT22;7458;49.002;8.472;2023-04-25T23:23:34;8.80;99.90
14735;DHT22;7458;49.002;8.472;2023-04-25T23:26:08;9.00;99.90
14735;DHT22;7458;49.002;8.472;2023-04-25T23:28:35;8.80;99.90
14735;DHT22;7458;49.002;8.472;2023-04-25T23:31:08;9.30;99.90
14735;DHT22;7458;49.002;8.472;2023-04-25T23:36:00;9.80;99.90
14735;DHT22;7458;49.002;8.472;2023-04-25T23:48:13;9.20;99.90
14735;DHT22;7458;49.002;8.472;2023-04-25T23:53:06;9.40;99.90